createdAt,value
2018-01-12T00:02:52.733Z,3.50
2018-01-12T00:06:03.019Z,3.50
2018-01-12T00:09:12.738Z,3.50
2018-01-12T00:12:22.789Z,3.40
2018-01-12T00:15:32.602Z,3.40
2018-01-12T00:18:43.351Z,3.50
2018-01-12T00:21:53.984Z,3.50
2018-01-12T00:25:05.010Z,3.50
2018-01-12T00:28:14.776Z,3.50
2018-01-12T00:31:25.239Z,3.50
2018-01-12T00:34:35.981Z,3.40
2018-01-12T00:37:46.071Z,3.30
2018-01-12T00:40:55.745Z,3.30
2018-01-12T00:44:06.310Z,3.30
2018-01-12T00:47:16.017Z,3.40
2018-01-12T00:50:25.945Z,3.30
2018-01-12T00:53:35.594Z,3.30
2018-01-12T00:56:45.571Z,3.40
2018-01-12T00:59:55.186Z,3.50
2018-01-12T01:03:05.115Z,3.40
2018-01-12T01:06:15.769Z,3.40
2018-01-12T01:09:25.779Z,3.50
2018-01-12T01:12:36.238Z,3.40
2018-01-12T01:15:46.182Z,3.40
2018-01-12T01:18:56.236Z,3.40
2018-01-12T01:22:06.906Z,3.40
2018-01-12T01:25:17.395Z,3.40
2018-01-12T01:28:27.493Z,3.40
2018-01-12T01:31:37.335Z,3.40
2018-01-12T01:34:47.649Z,3.50
2018-01-12T01:37:57.725Z,3.50
2018-01-12T01:41:07.984Z,3.40
2018-01-12T01:44:18.200Z,3.40
2018-01-12T01:47:28.130Z,3.50
2018-01-12T01:50:38.332Z,3.40
2018-01-12T01:53:49.629Z,3.40
2018-01-12T01:57:00.134Z,3.40
2018-01-12T02:00:10.079Z,3.40
2018-01-12T02:03:20.054Z,3.40
2018-01-12T02:06:29.954Z,3.50
2018-01-12T02:09:40.084Z,3.40
2018-01-12T02:12:49.691Z,3.30
2018-01-12T02:15:59.821Z,3.30
2018-01-12T02:19:09.822Z,3.30
2018-01-12T02:22:20.462Z,3.20
2018-01-12T02:25:30.638Z,3.20
2018-01-12T02:28:40.550Z,3.30
2018-01-12T02:31:51.282Z,3.10
2018-01-12T02:35:03.922Z,3.20
2018-01-12T02:38:13.814Z,3.20
2018-01-12T02:41:23.813Z,3.20
2018-01-12T02:44:34.934Z,3.30
2018-01-12T02:47:45.349Z,3.20
2018-01-12T02:50:55.983Z,3.30
2018-01-12T02:54:05.751Z,3.30
2018-01-12T02:57:15.848Z,3.30
2018-01-12T03:00:26.360Z,3.30
2018-01-12T03:03:36.646Z,3.40
2018-01-12T03:06:46.492Z,3.30
2018-01-12T03:09:56.556Z,3.30
2018-01-12T03:13:06.271Z,3.40
2018-01-12T03:16:16.900Z,3.30
2018-01-12T03:19:26.863Z,3.40
2018-01-12T03:22:37.626Z,3.40
2018-01-12T03:25:47.776Z,3.40
2018-01-12T03:28:58.392Z,3.40
2018-01-12T03:32:08.414Z,3.40
2018-01-12T03:35:18.946Z,3.40
2018-01-12T03:38:29.109Z,3.50
2018-01-12T03:41:39.034Z,3.50
2018-01-12T03:44:49.142Z,3.50
2018-01-12T03:47:59.220Z,3.50
2018-01-12T03:51:11.401Z,3.60
2018-01-12T03:54:21.903Z,3.50
2018-01-12T03:57:32.107Z,3.50
2018-01-12T04:00:42.651Z,3.50
2018-01-12T04:03:52.911Z,3.50
2018-01-12T04:07:03.101Z,3.50
2018-01-12T04:10:13.892Z,3.30
2018-01-12T04:13:24.485Z,3.30
2018-01-12T04:16:35.189Z,3.30
2018-01-12T04:19:45.386Z,3.30
2018-01-12T04:22:56.058Z,3.40
2018-01-12T04:26:06.181Z,3.30
2018-01-12T04:29:16.902Z,3.40
2018-01-12T04:32:26.977Z,3.40
2018-01-12T04:35:36.919Z,3.40
2018-01-12T04:38:47.154Z,3.50
2018-01-12T04:41:57.074Z,3.50
2018-01-12T04:45:07.511Z,3.50
2018-01-12T04:48:18.186Z,3.50
2018-01-12T04:51:28.507Z,3.50
2018-01-12T04:54:38.552Z,3.50
2018-01-12T04:57:48.803Z,3.50
2018-01-12T05:00:58.826Z,3.50
2018-01-12T05:04:09.002Z,3.60
2018-01-12T05:07:18.950Z,3.60
2018-01-12T05:10:29.533Z,3.50
2018-01-12T05:13:39.646Z,3.50
2018-01-12T05:16:49.868Z,3.50
2018-01-12T05:19:59.770Z,3.60
2018-01-12T05:23:10.858Z,3.50
2018-01-12T05:26:21.215Z,3.50
2018-01-12T05:29:31.109Z,3.60
2018-01-12T05:32:41.921Z,3.60
2018-01-12T05:35:52.530Z,3.60
2018-01-12T05:39:02.155Z,3.60
2018-01-12T05:42:12.921Z,3.60
2018-01-12T05:45:22.928Z,3.50
2018-01-12T05:48:33.341Z,3.40
2018-01-12T05:51:43.822Z,3.50
2018-01-12T05:54:54.018Z,3.50
2018-01-12T05:58:04.346Z,3.50
2018-01-12T06:01:25.938Z,3.40
2018-01-12T06:04:47.980Z,3.40
2018-01-12T06:07:58.533Z,3.40
2018-01-12T06:11:09.397Z,3.20
2018-01-12T06:14:19.973Z,3.20
2018-01-12T06:17:30.331Z,3.20
2018-01-12T06:23:51.439Z,3.30
2018-01-12T06:27:01.327Z,3.30
2018-01-12T06:30:11.652Z,3.30
2018-01-12T06:33:22.287Z,3.40
2018-01-12T06:36:32.527Z,3.40
2018-01-12T06:39:43.080Z,3.40
2018-01-12T06:42:53.419Z,3.50
2018-01-12T06:46:04.460Z,3.40
2018-01-12T06:49:14.970Z,3.40
2018-01-12T06:52:25.245Z,3.30
2018-01-12T06:55:34.961Z,3.30
2018-01-12T06:58:44.607Z,3.30
2018-01-12T07:01:54.594Z,3.40
2018-01-12T07:05:04.860Z,3.40
2018-01-12T07:08:15.887Z,3.40
2018-01-12T07:11:26.600Z,3.30
2018-01-12T07:14:37.005Z,3.30
2018-01-12T07:17:47.276Z,3.30
2018-01-12T07:21:08.555Z,3.30
2018-01-12T07:24:19.078Z,3.40
2018-01-12T07:27:29.279Z,3.50
2018-01-12T07:30:39.496Z,3.40
2018-01-12T07:33:50.615Z,3.20
2018-01-12T07:37:01.304Z,3.20
2018-01-12T07:40:11.956Z,3.20
2018-01-12T07:43:23.199Z,3.30
2018-01-12T07:46:33.769Z,3.30
2018-01-12T07:49:44.087Z,3.20
2018-01-12T07:52:59.926Z,3.20
2018-01-12T07:56:10.126Z,3.40
2018-01-12T07:59:20.154Z,3.40
2018-01-12T08:02:36.185Z,3.40
2018-01-12T08:05:47.514Z,3.40
2018-01-12T08:08:57.670Z,3.40
2018-01-12T08:12:07.952Z,3.50
2018-01-12T08:15:17.857Z,3.50
2018-01-12T08:18:27.544Z,3.60
2018-01-12T08:21:37.516Z,3.60
2018-01-12T08:24:48.054Z,3.60
2018-01-12T08:27:58.346Z,3.60
2018-01-12T08:31:09.025Z,3.50
2018-01-12T08:34:19.691Z,3.50
2018-01-12T08:37:30.639Z,3.60
2018-01-12T08:40:41.095Z,3.60
2018-01-12T08:43:50.982Z,3.70
2018-01-12T08:47:01.219Z,3.70
2018-01-12T08:50:11.569Z,3.60
2018-01-12T08:53:21.714Z,3.60
2018-01-12T08:56:32.256Z,3.70
2018-01-12T08:59:42.417Z,3.70
2018-01-12T09:02:52.657Z,3.70
2018-01-12T09:06:03.177Z,3.70
2018-01-12T09:09:13.835Z,3.70
2018-01-12T09:12:24.064Z,3.70
2018-01-12T09:15:34.108Z,3.70
2018-01-12T09:18:56.220Z,3.80
2018-01-12T09:22:09.905Z,3.80
2018-01-12T09:25:25.596Z,3.80
2018-01-12T09:28:36.159Z,3.80
2018-01-12T09:31:46.219Z,3.90
2018-01-12T09:35:04.141Z,4.00
2018-01-12T09:38:23.013Z,4.00
2018-01-12T09:41:32.925Z,4.00
2018-01-12T09:44:43.529Z,4.10
2018-01-12T09:51:10.590Z,4.20
2018-01-12T09:54:20.828Z,4.20
2018-01-12T09:57:30.617Z,4.20
2018-01-12T10:00:47.622Z,4.30
2018-01-12T10:03:57.463Z,4.30
2018-01-12T10:07:17.392Z,4.30
2018-01-12T10:10:27.370Z,4.30
2018-01-12T10:13:38.717Z,4.30
2018-01-12T10:16:49.138Z,4.30
2018-01-12T10:20:15.202Z,4.40
2018-01-12T10:23:25.598Z,4.40
2018-01-12T10:26:35.544Z,4.40
2018-01-12T10:29:59.024Z,4.50
2018-01-12T10:33:08.802Z,4.40
2018-01-12T10:36:19.749Z,4.50
2018-01-12T10:39:29.714Z,4.50
2018-01-12T10:42:40.031Z,4.50
2018-01-12T10:46:01.106Z,4.50
2018-01-12T10:52:46.078Z,4.60
2018-01-12T10:55:56.140Z,4.60
2018-01-12T10:59:05.891Z,4.60
2018-01-12T11:02:16.234Z,4.70
2018-01-12T11:05:28.245Z,4.80
2018-01-12T11:08:38.480Z,4.80
2018-01-12T11:11:48.863Z,4.80
2018-01-12T11:14:59.087Z,5.10
2018-01-12T11:18:08.966Z,5.30
2018-01-12T11:21:18.934Z,5.60
2018-01-12T11:24:28.900Z,5.60
2018-01-12T11:27:39.279Z,5.70
2018-01-12T11:30:50.650Z,5.60
2018-01-12T11:34:01.001Z,5.60
2018-01-12T11:37:11.078Z,5.80
2018-01-12T11:40:22.919Z,5.70
2018-01-12T11:43:33.769Z,5.70
2018-01-12T11:46:43.570Z,5.80
2018-01-12T11:49:54.949Z,5.80
2018-01-12T11:53:05.233Z,5.80
2018-01-12T11:56:15.917Z,5.80
2018-01-12T11:59:26.666Z,5.70
2018-01-12T12:02:37.593Z,5.60
2018-01-12T12:05:47.750Z,5.80
2018-01-12T12:08:57.631Z,5.70
2018-01-12T12:12:08.230Z,5.60
2018-01-12T12:15:18.977Z,5.70
2018-01-12T12:18:29.541Z,5.70
2018-01-12T12:21:40.237Z,5.60
2018-01-12T12:24:50.682Z,5.60
2018-01-12T12:28:01.495Z,5.70
2018-01-12T12:31:11.389Z,5.70
2018-01-12T12:34:22.582Z,5.60
2018-01-12T12:37:32.408Z,5.60
2018-01-12T12:40:42.985Z,5.50
2018-01-12T12:43:53.998Z,5.60
2018-01-12T12:47:05.066Z,5.50
2018-01-12T12:50:15.188Z,5.50
2018-01-12T12:53:25.019Z,5.60
2018-01-12T12:56:34.845Z,5.60
2018-01-12T12:59:44.665Z,5.70
2018-01-12T13:02:54.530Z,5.70
2018-01-12T13:06:04.257Z,5.70
2018-01-12T13:09:14.874Z,5.50
2018-01-12T13:12:24.778Z,5.40
2018-01-12T13:15:34.643Z,5.20
2018-01-12T13:18:44.617Z,5.20
2018-01-12T13:21:56.258Z,5.10
2018-01-12T13:25:06.561Z,5.10
2018-01-12T13:28:17.763Z,5.10
2018-01-12T13:31:28.460Z,5.10
2018-01-12T13:34:39.203Z,5.10
2018-01-12T13:37:49.359Z,5.10
2018-01-12T13:40:59.020Z,5.10
2018-01-12T13:44:09.227Z,5.00
2018-01-12T13:47:19.966Z,5.00
2018-01-12T13:50:30.885Z,5.00
2018-01-12T13:53:40.840Z,5.00
2018-01-12T13:56:51.574Z,4.90
2018-01-12T14:00:01.441Z,4.90
2018-01-12T14:03:11.408Z,4.90
2018-01-12T14:06:21.994Z,4.90
2018-01-12T14:09:32.418Z,5.00
2018-01-12T14:12:42.339Z,4.90
2018-01-12T14:15:52.390Z,4.90
2018-01-12T14:19:02.450Z,4.90
2018-01-12T14:22:12.602Z,4.90
2018-01-12T14:25:24.019Z,4.90
2018-01-12T14:28:34.364Z,4.80
2018-01-12T14:31:44.406Z,4.80
2018-01-12T14:34:55.444Z,4.80
2018-01-12T14:38:05.706Z,4.80
2018-01-12T14:41:15.937Z,4.80
2018-01-12T14:44:26.680Z,4.70
2018-01-12T14:47:36.986Z,4.80
2018-01-12T14:50:47.314Z,4.80
2018-01-12T14:53:57.113Z,4.70
2018-01-12T14:57:06.920Z,4.70
2018-01-12T15:00:16.825Z,4.70
2018-01-12T15:03:26.913Z,4.70
2018-01-12T15:06:36.632Z,4.70
2018-01-12T15:09:48.212Z,4.70
2018-01-12T15:12:58.316Z,4.70
2018-01-12T15:16:08.478Z,4.70
2018-01-12T15:19:19.102Z,4.70
2018-01-12T15:22:29.891Z,4.60
2018-01-12T15:25:41.948Z,4.70
2018-01-12T15:28:52.904Z,4.60
2018-01-12T15:32:03.850Z,4.60
2018-01-12T15:35:15.131Z,4.60
2018-01-12T15:38:25.573Z,4.60
2018-01-12T15:41:37.403Z,4.60
2018-01-12T15:44:47.858Z,4.60
2018-01-12T15:47:59.452Z,4.60
2018-01-12T15:51:10.043Z,4.60
2018-01-12T15:54:20.716Z,4.60
2018-01-12T15:57:30.688Z,4.50
2018-01-12T16:00:41.396Z,4.50
2018-01-12T16:03:52.218Z,4.50
2018-01-12T16:07:02.585Z,4.50
2018-01-12T16:10:12.658Z,4.40
2018-01-12T16:13:23.021Z,4.40
2018-01-12T16:16:32.895Z,4.40
2018-01-12T16:19:43.905Z,4.40
2018-01-12T16:22:54.324Z,4.40
2018-01-12T16:26:03.819Z,4.40
2018-01-12T16:29:13.754Z,4.40
2018-01-12T16:32:24.225Z,4.30
2018-01-12T16:35:34.364Z,4.30
2018-01-12T16:38:44.382Z,4.30
2018-01-12T16:41:54.077Z,4.30
2018-01-12T16:45:03.849Z,4.30
2018-01-12T16:48:13.659Z,4.40
2018-01-12T16:51:24.353Z,4.50
2018-01-12T16:54:36.026Z,4.70
2018-01-12T16:57:47.568Z,4.60
2018-01-12T17:00:58.049Z,4.60
2018-01-12T17:04:08.400Z,4.60
2018-01-12T17:07:18.772Z,4.80
2018-01-12T17:10:28.721Z,4.80
2018-01-12T17:13:39.812Z,4.90
2018-01-12T17:16:50.302Z,4.80
2018-01-12T17:20:00.225Z,5.10
2018-01-12T17:23:10.411Z,5.20
2018-01-12T17:26:20.221Z,5.10
2018-01-12T17:29:30.075Z,5.10
2018-01-12T17:32:40.587Z,5.10
2018-01-12T17:35:51.903Z,5.20
2018-01-12T17:39:02.198Z,5.20
2018-01-12T17:42:12.901Z,5.10
2018-01-12T17:45:24.626Z,5.00
2018-01-12T17:48:34.606Z,5.00
2018-01-12T17:51:45.336Z,5.10
2018-01-12T17:54:55.290Z,5.10
2018-01-12T17:58:05.110Z,5.20
2018-01-12T18:01:15.671Z,5.10
2018-01-12T18:04:25.696Z,5.10
2018-01-12T18:07:35.910Z,5.00
2018-01-12T18:10:45.909Z,5.00
2018-01-12T18:13:56.765Z,5.10
2018-01-12T18:17:06.845Z,5.00
2018-01-12T18:20:16.933Z,4.90
2018-01-12T18:23:26.839Z,4.90
2018-01-12T18:26:36.830Z,4.90
2018-01-12T18:29:46.413Z,4.90
2018-01-12T18:32:56.539Z,4.80
2018-01-12T18:36:07.256Z,4.80
2018-01-12T18:39:17.270Z,4.80
2018-01-12T18:42:27.216Z,4.90
2018-01-12T18:45:40.783Z,5.00
2018-01-12T18:48:52.254Z,4.90
2018-01-12T18:52:03.253Z,4.90
2018-01-12T18:55:14.628Z,4.90
2018-01-12T18:58:25.799Z,4.90
2018-01-12T19:01:36.987Z,4.90
2018-01-12T19:04:52.857Z,5.00
2018-01-12T19:08:05.104Z,4.90
2018-01-12T19:11:17.924Z,4.80
2018-01-12T19:14:29.411Z,4.80
2018-01-12T19:17:41.543Z,4.60
2018-01-12T19:20:55.204Z,4.70
2018-01-12T19:24:05.773Z,4.80
2018-01-12T19:27:16.811Z,4.80
2018-01-12T19:30:27.382Z,4.80
2018-01-12T19:33:38.102Z,4.80
2018-01-12T19:36:48.190Z,4.90
2018-01-12T19:39:58.061Z,4.80
2018-01-12T19:43:08.008Z,4.80
2018-01-12T19:46:18.597Z,4.80
2018-01-12T19:49:28.460Z,4.70
2018-01-12T19:52:38.893Z,4.70
2018-01-12T19:55:48.955Z,4.70
2018-01-12T19:58:59.561Z,4.60
2018-01-12T20:02:10.582Z,4.60
2018-01-12T20:05:21.386Z,4.60
2018-01-12T20:08:31.974Z,4.70
2018-01-12T20:11:42.099Z,4.70
2018-01-12T20:14:55.247Z,4.60
2018-01-12T20:18:06.337Z,4.40
2018-01-12T20:21:16.251Z,4.50
2018-01-12T20:24:26.497Z,4.60
2018-01-12T20:27:37.051Z,4.60
2018-01-12T20:30:47.093Z,4.60
2018-01-12T20:33:56.899Z,4.60
2018-01-12T20:37:07.483Z,4.40
2018-01-12T20:40:17.600Z,4.50
2018-01-12T20:43:28.650Z,4.50
2018-01-12T20:46:39.581Z,4.50
2018-01-12T20:49:49.758Z,4.50
2018-01-12T20:52:59.856Z,4.50
2018-01-12T20:56:11.229Z,4.50
2018-01-12T20:59:21.445Z,4.50
2018-01-12T21:02:31.558Z,4.50
2018-01-12T21:05:41.793Z,4.40
2018-01-12T21:08:51.908Z,4.40
2018-01-12T21:12:02.088Z,4.40
2018-01-12T21:15:12.224Z,4.30
2018-01-12T21:18:22.367Z,4.20
2018-01-12T21:21:32.757Z,4.20
2018-01-12T21:24:42.874Z,4.30
2018-01-12T21:27:53.363Z,4.30
2018-01-12T21:31:04.189Z,4.30
2018-01-12T21:34:14.195Z,4.30
2018-01-12T21:37:24.371Z,4.30
2018-01-12T21:40:34.571Z,4.30
2018-01-12T21:43:44.391Z,4.30
2018-01-12T21:46:55.072Z,4.20
2018-01-12T21:50:06.459Z,4.30
2018-01-12T21:53:16.376Z,4.30
2018-01-12T21:56:27.458Z,4.30
2018-01-12T21:59:39.716Z,4.30
2018-01-12T22:02:53.036Z,4.20
2018-01-12T22:06:04.523Z,4.20
2018-01-12T22:09:15.693Z,4.20
2018-01-12T22:12:26.406Z,4.10
2018-01-12T22:15:39.563Z,4.20
2018-01-12T22:18:51.727Z,4.10
2018-01-12T22:22:02.530Z,4.10
2018-01-12T22:25:13.651Z,4.10
2018-01-12T22:28:23.541Z,4.10
2018-01-12T22:31:33.823Z,4.10
2018-01-12T22:34:44.494Z,3.90
2018-01-12T22:37:55.287Z,4.00
2018-01-12T22:41:05.589Z,4.10
2018-01-12T22:44:16.009Z,4.00
2018-01-12T22:47:28.070Z,4.00
2018-01-12T22:50:39.590Z,4.10
2018-01-12T22:53:51.362Z,4.10
2018-01-12T22:57:02.260Z,4.10
2018-01-12T23:00:15.531Z,4.10
2018-01-12T23:03:27.672Z,4.10
2018-01-12T23:06:38.146Z,4.10
2018-01-12T23:09:49.104Z,4.10
2018-01-12T23:12:59.599Z,4.10
2018-01-12T23:16:09.855Z,4.10
2018-01-12T23:19:20.018Z,4.10
2018-01-12T23:22:30.560Z,4.10
2018-01-12T23:25:40.907Z,4.10
2018-01-12T23:28:51.235Z,4.10
2018-01-12T23:32:01.589Z,4.00
2018-01-12T23:35:12.407Z,4.00
2018-01-12T23:38:23.169Z,4.00
2018-01-12T23:41:34.112Z,3.90
2018-01-12T23:44:44.437Z,4.00
2018-01-12T23:47:54.662Z,4.00
2018-01-12T23:51:05.657Z,4.10
2018-01-12T23:54:17.038Z,4.00
2018-01-12T23:57:28.288Z,4.00
